createdAt,value
2018-05-26T00:00:32.150Z,99.99
2018-05-26T00:01:40.207Z,99.99
2018-05-26T00:02:48.280Z,99.99
2018-05-26T00:03:56.344Z,99.99
2018-05-26T00:05:04.418Z,99.99
2018-05-26T00:06:12.496Z,99.99
2018-05-26T00:07:20.543Z,99.99
2018-05-26T00:08:28.630Z,99.99
2018-05-26T00:09:36.683Z,99.99
2018-05-26T00:10:44.756Z,99.99
2018-05-26T00:11:52.827Z,99.99
2018-05-26T00:13:00.889Z,99.99
2018-05-26T00:14:08.951Z,99.99
2018-05-26T00:15:17.077Z,99.99
2018-05-26T00:16:25.075Z,99.99
2018-05-26T00:17:33.145Z,99.99
2018-05-26T00:18:41.226Z,99.99
2018-05-26T00:19:49.273Z,99.99
2018-05-26T00:20:57.357Z,99.99
2018-05-26T00:22:05.429Z,99.99
2018-05-26T00:23:13.477Z,99.99
2018-05-26T00:24:21.556Z,99.99
2018-05-26T00:25:29.650Z,99.99
2018-05-26T00:26:37.688Z,99.99
2018-05-26T00:27:45.761Z,99.99
2018-05-26T00:28:53.827Z,99.99
2018-05-26T00:30:01.867Z,99.99
2018-05-26T00:31:09.919Z,99.99
2018-05-26T00:32:18.020Z,99.99
2018-05-26T00:33:26.077Z,99.99
2018-05-26T00:34:34.156Z,99.99
2018-05-26T00:35:42.222Z,99.99
2018-05-26T00:36:50.262Z,99.99
2018-05-26T00:37:58.348Z,99.99
2018-05-26T00:39:06.425Z,99.99
2018-05-26T00:40:14.486Z,99.99
2018-05-26T00:41:22.554Z,99.99
2018-05-26T00:42:30.615Z,99.99
2018-05-26T00:43:38.677Z,99.99
2018-05-26T00:44:46.746Z,99.99
2018-05-26T00:45:54.814Z,99.99
2018-05-26T00:47:02.875Z,99.99
2018-05-26T00:48:10.937Z,99.99
2018-05-26T00:49:19.012Z,99.99
2018-05-26T00:50:27.064Z,99.99
2018-05-26T00:51:35.134Z,99.99
2018-05-26T00:52:43.213Z,99.99
2018-05-26T00:53:51.276Z,99.99
2018-05-26T00:54:59.324Z,99.99
2018-05-26T00:56:07.419Z,99.99
2018-05-26T00:57:15.468Z,99.99
2018-05-26T00:58:23.542Z,99.99
2018-05-26T00:59:31.603Z,99.99
2018-05-26T01:00:39.641Z,99.99
2018-05-26T01:01:47.737Z,99.99
2018-05-26T01:02:55.817Z,99.99
2018-05-26T01:04:03.871Z,99.99
2018-05-26T01:05:11.937Z,99.99
2018-05-26T01:06:19.970Z,99.99
2018-05-26T01:07:28.064Z,99.99
2018-05-26T01:08:36.130Z,99.99
2018-05-26T01:09:44.199Z,99.99
2018-05-26T01:10:52.260Z,99.99
2018-05-26T01:12:00.328Z,99.99
2018-05-26T01:13:08.410Z,99.99
2018-05-26T01:14:16.453Z,99.99
2018-05-26T01:15:24.529Z,99.99
2018-05-26T01:16:32.601Z,99.99
2018-05-26T01:17:40.652Z,99.99
2018-05-26T01:18:48.724Z,99.99
2018-05-26T01:19:56.779Z,99.99
2018-05-26T01:21:04.853Z,99.99
2018-05-26T01:22:12.927Z,99.99
2018-05-26T01:23:20.973Z,99.99
2018-05-26T01:24:29.059Z,99.99
2018-05-26T01:25:37.133Z,99.99
2018-05-26T01:26:45.242Z,99.99
2018-05-26T01:27:53.248Z,99.99
2018-05-26T01:29:01.312Z,99.99
2018-05-26T01:30:09.365Z,99.99
2018-05-26T01:31:17.445Z,99.99
2018-05-26T01:32:25.517Z,99.99
2018-05-26T01:33:33.586Z,99.99
2018-05-26T01:34:41.639Z,99.99
2018-05-26T01:35:49.682Z,99.99
2018-05-26T01:36:57.781Z,99.99
2018-05-26T01:38:05.848Z,99.99
2018-05-26T01:39:13.908Z,99.99
2018-05-26T01:40:21.973Z,99.99
2018-05-26T01:41:30.029Z,99.99
2018-05-26T01:42:38.109Z,99.99
2018-05-26T01:43:46.179Z,99.99
2018-05-26T01:44:54.249Z,99.99
2018-05-26T01:46:02.317Z,99.99
2018-05-26T01:47:10.373Z,99.99
2018-05-26T01:48:18.431Z,99.99
2018-05-26T01:49:26.500Z,99.99
2018-05-26T01:50:34.577Z,99.99
2018-05-26T01:51:42.647Z,99.99
2018-05-26T01:52:50.717Z,99.99
2018-05-26T01:53:58.781Z,99.99
2018-05-26T01:55:06.843Z,99.99
2018-05-26T01:56:14.917Z,99.99
2018-05-26T01:57:22.975Z,99.99
2018-05-26T01:58:31.046Z,99.99
2018-05-26T01:59:39.106Z,99.99
2018-05-26T02:00:47.188Z,99.99
2018-05-26T02:01:55.216Z,99.99
2018-05-26T02:03:03.323Z,99.99
2018-05-26T02:04:11.380Z,99.99
2018-05-26T02:05:19.440Z,99.99
2018-05-26T02:06:27.518Z,99.99
2018-05-26T02:07:35.587Z,99.99
2018-05-26T02:08:43.641Z,99.99
2018-05-26T02:09:51.730Z,99.99
2018-05-26T02:10:59.754Z,99.99
2018-05-26T02:12:07.840Z,99.99
2018-05-26T02:13:15.929Z,99.99
2018-05-26T02:14:23.985Z,99.99
2018-05-26T02:15:32.053Z,99.99
2018-05-26T02:16:40.091Z,99.99
2018-05-26T02:17:48.183Z,99.99
2018-05-26T02:18:56.249Z,99.99
2018-05-26T02:20:04.319Z,99.99
2018-05-26T02:21:12.381Z,99.99
2018-05-26T02:22:20.453Z,99.99
2018-05-26T02:23:28.527Z,99.99
2018-05-26T02:24:36.584Z,99.99
2018-05-26T02:25:44.659Z,99.99
2018-05-26T02:26:52.716Z,99.99
2018-05-26T02:28:00.783Z,99.99
2018-05-26T02:29:08.858Z,99.99
2018-05-26T02:30:16.915Z,99.99
2018-05-26T02:31:24.995Z,99.99
2018-05-26T02:32:33.048Z,99.99
2018-05-26T02:33:41.110Z,99.99
2018-05-26T02:34:49.180Z,99.99
2018-05-26T02:35:57.254Z,99.99
2018-05-26T02:37:05.316Z,99.99
2018-05-26T02:38:13.383Z,99.99
2018-05-26T02:39:21.462Z,99.99
2018-05-26T02:40:29.504Z,99.99
2018-05-26T02:41:37.588Z,99.99
2018-05-26T02:42:45.661Z,99.99
2018-05-26T02:43:53.729Z,99.99
2018-05-26T02:45:01.787Z,99.99
2018-05-26T02:46:09.910Z,99.99
2018-05-26T02:47:17.938Z,99.99
2018-05-26T02:48:25.988Z,99.99
2018-05-26T02:49:34.065Z,99.99
2018-05-26T02:50:42.112Z,99.99
2018-05-26T02:51:50.161Z,99.99
2018-05-26T02:52:58.258Z,99.99
2018-05-26T02:54:06.319Z,99.99
2018-05-26T02:55:14.407Z,99.99
2018-05-26T02:56:22.465Z,99.99
2018-05-26T02:57:30.520Z,99.99
2018-05-26T02:58:38.594Z,99.99
2018-05-26T02:59:46.647Z,99.99
2018-05-26T03:00:54.724Z,99.99
2018-05-26T03:02:02.795Z,99.99
2018-05-26T03:03:10.872Z,99.99
2018-05-26T03:04:18.909Z,99.99
2018-05-26T03:05:26.990Z,99.99
2018-05-26T03:06:35.047Z,99.99
2018-05-26T03:07:43.115Z,99.99
2018-05-26T03:08:51.181Z,99.99
2018-05-26T03:09:59.234Z,99.99
2018-05-26T03:11:07.316Z,99.99
2018-05-26T03:12:15.387Z,99.99
2018-05-26T03:13:23.445Z,99.99
2018-05-26T03:14:31.516Z,99.99
2018-05-26T03:15:39.553Z,99.99
2018-05-26T03:16:47.643Z,99.99
2018-05-26T03:17:55.707Z,99.99
2018-05-26T03:19:03.778Z,99.99
2018-05-26T03:20:11.838Z,99.99
2018-05-26T03:21:19.885Z,99.99
2018-05-26T03:22:27.968Z,99.99
2018-05-26T03:23:36.038Z,99.99
2018-05-26T03:24:44.118Z,99.99
2018-05-26T03:25:52.173Z,99.99
2018-05-26T03:27:00.217Z,99.99
2018-05-26T03:28:08.317Z,99.99
2018-05-26T03:29:16.373Z,99.99
2018-05-26T03:30:24.541Z,99.99
2018-05-26T03:31:32.515Z,99.99
2018-05-26T03:32:40.569Z,99.99
2018-05-26T03:33:48.644Z,99.99
2018-05-26T03:34:56.708Z,99.99
2018-05-26T03:36:04.778Z,99.99
2018-05-26T03:37:12.844Z,99.99
2018-05-26T03:38:20.896Z,99.99
2018-05-26T03:39:28.968Z,99.99
2018-05-26T03:40:37.046Z,99.99
2018-05-26T03:41:45.111Z,99.99
2018-05-26T03:42:53.176Z,99.99
2018-05-26T03:44:01.248Z,99.99
2018-05-26T03:45:09.292Z,99.99
2018-05-26T03:46:17.385Z,99.99
2018-05-26T03:47:25.415Z,99.99
2018-05-26T03:48:33.502Z,99.99
2018-05-26T03:49:41.571Z,99.99
2018-05-26T03:50:49.619Z,99.99
2018-05-26T03:51:57.706Z,99.99
2018-05-26T03:53:05.776Z,99.99
2018-05-26T03:54:13.837Z,99.99
2018-05-26T03:55:21.898Z,99.99
2018-05-26T03:56:29.942Z,99.99
2018-05-26T03:57:38.048Z,99.99
2018-05-26T03:58:46.108Z,99.99
2018-05-26T03:59:54.170Z,99.99
2018-05-26T04:01:02.226Z,99.99
2018-05-26T04:02:10.290Z,99.99
2018-05-26T04:03:18.372Z,99.99
2018-05-26T04:04:26.436Z,99.99
2018-05-26T04:05:34.510Z,99.99
2018-05-26T04:06:42.577Z,99.99
2018-05-26T04:07:50.633Z,99.99
2018-05-26T04:08:58.698Z,99.99
2018-05-26T04:10:06.772Z,99.99
2018-05-26T04:11:14.849Z,99.99
2018-05-26T04:12:22.891Z,99.99
2018-05-26T04:13:30.966Z,99.99
2018-05-26T04:14:39.034Z,99.99
2018-05-26T04:15:47.095Z,99.99
2018-05-26T04:16:55.169Z,99.99
2018-05-26T04:18:03.237Z,99.99
2018-05-26T04:19:11.340Z,99.99
2018-05-26T04:20:19.370Z,99.99
2018-05-26T04:21:27.427Z,99.99
2018-05-26T04:22:35.505Z,99.99
2018-05-26T04:23:43.562Z,99.99
2018-05-26T04:24:51.621Z,99.99
2018-05-26T04:25:59.676Z,99.99
2018-05-26T04:27:07.770Z,99.99
2018-05-26T04:28:15.833Z,99.99
2018-05-26T04:29:23.901Z,99.99
2018-05-26T04:30:31.971Z,99.99
2018-05-26T04:31:40.001Z,99.99
2018-05-26T04:32:48.107Z,99.99
2018-05-26T04:33:56.174Z,99.99
2018-05-26T04:35:04.239Z,99.99
2018-05-26T04:36:12.309Z,99.99
2018-05-26T04:37:20.365Z,99.99
2018-05-26T04:38:28.434Z,99.99
2018-05-26T04:39:36.510Z,99.99
2018-05-26T04:40:44.596Z,99.99
2018-05-26T04:41:52.633Z,99.99
2018-05-26T04:43:00.713Z,99.99
2018-05-26T04:44:08.769Z,99.99
2018-05-26T04:45:16.845Z,99.99
2018-05-26T04:46:24.927Z,99.99
2018-05-26T04:47:33.471Z,99.99
2018-05-26T04:48:41.049Z,99.99
2018-05-26T04:49:49.121Z,99.99
2018-05-26T04:50:57.193Z,99.99
2018-05-26T04:52:05.252Z,99.99
2018-05-26T04:53:13.332Z,99.99
2018-05-26T04:54:21.383Z,99.99
2018-05-26T04:55:29.437Z,99.99
2018-05-26T04:56:37.534Z,99.99
2018-05-26T04:57:45.595Z,99.99
2018-05-26T04:58:56.870Z,99.99
2018-05-26T05:00:01.727Z,99.99
2018-05-26T05:01:09.779Z,99.99
2018-05-26T05:02:17.871Z,99.87
2018-05-26T05:03:25.933Z,99.29
2018-05-26T05:04:33.994Z,98.67
2018-05-26T05:05:42.116Z,99.24
2018-05-26T05:06:50.107Z,98.67
2018-05-26T05:07:58.197Z,98.96
2018-05-26T05:09:06.268Z,99.48
2018-05-26T05:10:14.503Z,99.58
2018-05-26T05:11:22.440Z,99.48
2018-05-26T05:12:30.541Z,99.58
2018-05-26T05:13:38.537Z,99.99
2018-05-26T05:14:47.377Z,99.99
2018-05-26T05:15:54.695Z,99.99
2018-05-26T05:17:02.743Z,99.99
2018-05-26T05:18:10.821Z,99.99
2018-05-26T05:19:18.890Z,99.99
2018-05-26T05:20:26.960Z,99.99
2018-05-26T05:21:35.025Z,99.99
2018-05-26T05:22:43.095Z,99.99
2018-05-26T05:23:51.165Z,99.99
2018-05-26T05:24:59.232Z,99.99
2018-05-26T05:26:07.295Z,99.99
2018-05-26T05:27:15.368Z,99.99
2018-05-26T05:28:23.440Z,99.99
2018-05-26T05:29:31.495Z,99.99
2018-05-26T05:30:39.537Z,99.99
2018-05-26T05:31:47.615Z,99.99
2018-05-26T05:32:55.713Z,99.99
2018-05-26T05:34:03.789Z,99.99
2018-05-26T05:35:11.841Z,99.99
2018-05-26T05:36:19.879Z,99.99
2018-05-26T05:37:28.008Z,99.99
2018-05-26T05:38:36.235Z,99.99
2018-05-26T05:39:44.111Z,99.99
2018-05-26T05:40:52.186Z,99.99
2018-05-26T05:42:00.235Z,99.99
2018-05-26T05:43:08.318Z,99.99
2018-05-26T05:44:16.466Z,99.99
2018-05-26T05:45:24.466Z,99.99
2018-05-26T05:46:32.532Z,99.99
2018-05-26T05:47:40.593Z,99.99
2018-05-26T05:48:48.658Z,99.99
2018-05-26T05:49:56.725Z,99.99
2018-05-26T05:51:04.826Z,99.99
2018-05-26T05:52:12.863Z,99.91
2018-05-26T05:53:20.918Z,99.99
2018-05-26T05:54:28.993Z,99.99
2018-05-26T05:55:37.081Z,99.34
2018-05-26T05:56:45.145Z,98.76
2018-05-26T05:57:53.198Z,98.47
2018-05-26T05:59:01.277Z,98.00
2018-05-26T06:00:09.326Z,97.61
2018-05-26T06:01:17.424Z,97.80
2018-05-26T06:02:25.479Z,97.23
2018-05-26T06:03:33.548Z,98.00
2018-05-26T06:04:41.619Z,98.33
2018-05-26T06:05:49.656Z,95.98
2018-05-26T06:06:57.752Z,96.08
2018-05-26T06:08:05.827Z,96.22
2018-05-26T06:09:13.898Z,96.56
2018-05-26T06:10:21.968Z,96.22
2018-05-26T06:11:29.996Z,95.36
2018-05-26T06:12:38.069Z,95.46
2018-05-26T06:13:46.165Z,94.50
2018-05-26T06:14:54.237Z,95.26
2018-05-26T06:16:02.300Z,95.65
2018-05-26T06:17:10.362Z,94.59
2018-05-26T06:18:18.447Z,93.63
2018-05-26T06:19:26.506Z,92.97
2018-05-26T06:20:34.567Z,92.44
2018-05-26T06:21:42.646Z,92.63
2018-05-26T06:22:50.745Z,93.01
2018-05-26T06:23:58.787Z,93.01
2018-05-26T06:25:06.869Z,92.44
2018-05-26T06:26:14.941Z,92.15
2018-05-26T06:27:22.999Z,93.01
2018-05-26T06:28:31.062Z,91.77
2018-05-26T06:29:39.134Z,91.62
2018-05-26T06:30:47.212Z,91.42
2018-05-26T06:31:55.275Z,90.95
2018-05-26T06:33:03.340Z,90.18
2018-05-26T06:34:11.402Z,89.22
2018-05-26T06:35:19.461Z,88.65
2018-05-26T06:36:27.558Z,89.99
2018-05-26T06:37:35.661Z,88.84
2018-05-26T06:38:43.678Z,89.03
2018-05-26T06:39:52.322Z,90.37
2018-05-26T06:40:59.850Z,89.70
2018-05-26T06:42:07.895Z,89.22
2018-05-26T06:43:15.968Z,90.42
2018-05-26T06:44:24.112Z,87.73
2018-05-26T06:45:32.137Z,87.35
2018-05-26T06:46:40.167Z,88.79
2018-05-26T06:47:48.331Z,88.40
2018-05-26T06:48:56.315Z,87.25
2018-05-26T06:50:04.392Z,85.14
2018-05-26T06:51:12.488Z,84.60
2018-05-26T06:52:20.521Z,84.31
2018-05-26T06:53:28.577Z,83.84
2018-05-26T06:54:36.671Z,84.31
2018-05-26T06:55:44.827Z,85.37
2018-05-26T06:56:52.794Z,84.17
2018-05-26T06:58:00.984Z,83.87
2018-05-26T06:59:09.109Z,84.17
2018-05-26T07:00:17.100Z,82.73
2018-05-26T07:01:25.069Z,82.24
2018-05-26T07:02:33.146Z,82.86
2018-05-26T07:03:41.639Z,80.07
2018-05-26T07:04:49.267Z,80.55
2018-05-26T07:05:57.343Z,81.52
2018-05-26T07:07:05.429Z,80.84
2018-05-26T07:08:13.504Z,81.07
2018-05-26T07:09:21.578Z,79.63
2018-05-26T07:10:29.608Z,78.96
2018-05-26T07:11:37.760Z,77.46
2018-05-26T07:12:45.897Z,77.84
2018-05-26T07:13:53.884Z,77.26
2018-05-26T07:15:01.916Z,76.92
2018-05-26T07:16:10.004Z,77.01
2018-05-26T07:17:18.124Z,76.25
2018-05-26T07:18:26.130Z,75.57
2018-05-26T07:19:34.220Z,75.32
2018-05-26T07:20:42.273Z,76.09
2018-05-26T07:21:50.343Z,76.42
2018-05-26T07:22:58.431Z,74.43
2018-05-26T07:24:06.497Z,72.73
2018-05-26T07:25:14.564Z,69.10
2018-05-26T07:26:22.692Z,67.94
2018-05-26T07:27:30.692Z,67.75
2018-05-26T07:28:38.765Z,69.20
2018-05-26T07:29:46.859Z,67.27
2018-05-26T07:30:54.970Z,69.32
2018-05-26T07:32:02.998Z,65.20
2018-05-26T07:33:11.080Z,62.34
2018-05-26T07:34:19.142Z,63.50
2018-05-26T07:35:27.215Z,60.66
2018-05-26T07:36:35.298Z,61.82
2018-05-26T07:37:43.748Z,58.17
2018-05-26T07:38:51.437Z,54.81
2018-05-26T07:39:59.512Z,53.89
2018-05-26T07:41:07.602Z,56.07
2018-05-26T07:42:15.672Z,55.68
2018-05-26T07:43:23.739Z,54.84
2018-05-26T07:44:31.823Z,54.28
2018-05-26T07:45:39.867Z,55.04
2018-05-26T07:46:47.988Z,54.38
2018-05-26T07:47:56.044Z,55.64
2018-05-26T07:49:04.128Z,56.03
2018-05-26T07:50:12.201Z,57.48
2018-05-26T07:51:20.252Z,52.86
2018-05-26T07:52:28.367Z,51.50
2018-05-26T07:53:36.438Z,53.67
2018-05-26T07:54:44.521Z,56.85
2018-05-26T07:55:52.590Z,58.39
2018-05-26T07:57:00.686Z,58.78
2018-05-26T07:58:08.749Z,59.17
2018-05-26T07:59:16.833Z,54.69
2018-05-26T08:00:24.926Z,56.92
2018-05-26T08:01:33.002Z,57.69
2018-05-26T08:02:41.076Z,54.03
2018-05-26T08:03:49.145Z,54.52
2018-05-26T08:04:57.220Z,57.23
2018-05-26T08:06:05.306Z,56.10
2018-05-26T08:07:13.383Z,57.29
2018-05-26T08:08:21.465Z,52.83
2018-05-26T08:09:29.525Z,54.77
2018-05-26T08:10:37.626Z,55.42
2018-05-26T08:11:45.709Z,56.24
2018-05-26T08:12:53.792Z,56.26
2018-05-26T08:14:01.877Z,57.53
2018-05-26T08:15:09.927Z,53.87
2018-05-26T08:16:18.017Z,53.58
2018-05-26T08:17:26.164Z,54.55
2018-05-26T08:18:34.195Z,55.35
2018-05-26T08:19:42.271Z,55.16
2018-05-26T08:20:50.342Z,53.41
2018-05-26T08:21:58.429Z,52.76
2018-05-26T08:23:06.509Z,55.69
2018-05-26T08:24:14.592Z,55.89
2018-05-26T08:25:22.664Z,51.93
2018-05-26T08:26:30.744Z,53.47
2018-05-26T08:27:38.828Z,53.53
2018-05-26T08:28:46.917Z,53.63
2018-05-26T08:29:55.006Z,55.18
2018-05-26T08:31:03.062Z,54.11
2018-05-26T08:32:11.145Z,51.04
2018-05-26T08:33:19.216Z,54.24
2018-05-26T08:34:27.317Z,55.69
2018-05-26T08:35:35.394Z,52.52
2018-05-26T08:36:43.479Z,55.14
2018-05-26T08:37:51.560Z,55.14
2018-05-26T08:38:59.613Z,53.22
2018-05-26T08:40:07.718Z,50.34
2018-05-26T08:41:15.810Z,50.53
2018-05-26T08:42:23.882Z,51.01
2018-05-26T08:43:31.961Z,51.50
2018-05-26T08:44:40.023Z,53.18
2018-05-26T08:45:48.132Z,48.32
2018-05-26T08:46:56.217Z,49.44
2018-05-26T08:48:04.284Z,50.56
2018-05-26T08:49:12.358Z,50.58
2018-05-26T08:50:20.430Z,52.20
2018-05-26T08:51:28.526Z,50.36
2018-05-26T08:52:36.614Z,53.75
2018-05-26T08:53:44.695Z,54.27
2018-05-26T08:54:52.845Z,51.93
2018-05-26T08:56:00.865Z,53.13
2018-05-26T08:57:08.947Z,50.51
2018-05-26T08:58:17.020Z,51.60
2018-05-26T08:59:25.110Z,50.65
2018-05-26T09:00:33.202Z,51.04
2018-05-26T09:01:41.272Z,47.08
2018-05-26T09:02:49.344Z,47.08
2018-05-26T09:03:57.445Z,47.86
2018-05-26T09:05:05.527Z,50.12
2018-05-26T09:06:13.598Z,51.28
2018-05-26T09:07:21.684Z,55.55
2018-05-26T09:08:29.722Z,54.00
2018-05-26T09:09:37.841Z,50.99
2018-05-26T09:10:45.912Z,52.25
2018-05-26T09:11:54.023Z,53.61
2018-05-26T09:13:02.095Z,55.65
2018-05-26T09:14:10.180Z,56.85
2018-05-26T09:15:18.262Z,53.16
2018-05-26T09:16:26.337Z,52.86
2018-05-26T09:17:34.419Z,49.78
2018-05-26T09:18:42.535Z,48.71
2018-05-26T09:19:50.587Z,50.41
2018-05-26T09:20:58.661Z,52.25
2018-05-26T09:22:06.754Z,51.93
2018-05-26T09:23:14.827Z,55.50
2018-05-26T09:24:22.898Z,52.86
2018-05-26T09:25:31.040Z,54.90
2018-05-26T09:26:39.071Z,58.39
2018-05-26T09:27:47.148Z,54.21
2018-05-26T09:28:55.227Z,57.70
2018-05-26T09:30:03.309Z,61.49
2018-05-26T09:31:11.390Z,58.39
2018-05-26T09:32:19.436Z,55.47
2018-05-26T09:33:27.544Z,56.64
2018-05-26T09:34:35.636Z,57.48
2018-05-26T09:35:43.716Z,58.16
2018-05-26T09:36:52.022Z,56.35
2018-05-26T09:37:59.846Z,57.70
2018-05-26T09:39:08.513Z,53.34
2018-05-26T09:40:16.642Z,52.73
2018-05-26T09:41:24.654Z,53.67
2018-05-26T09:42:32.684Z,53.77
2018-05-26T09:43:40.849Z,55.98
2018-05-26T09:44:48.922Z,58.56
2018-05-26T09:45:56.410Z,61.95
2018-05-26T09:47:04.487Z,60.88
2018-05-26T09:48:12.573Z,58.59
2018-05-26T09:49:20.628Z,58.49
2018-05-26T09:50:28.707Z,60.82
2018-05-26T09:51:36.802Z,55.62
2018-05-26T09:52:44.878Z,57.23
2018-05-26T09:53:52.933Z,57.53
2018-05-26T09:55:01.016Z,56.94
2018-05-26T09:56:09.217Z,56.16
2018-05-26T09:57:17.167Z,57.43
2018-05-26T09:58:25.259Z,56.94
2018-05-26T09:59:33.332Z,57.71
2018-05-26T10:00:41.411Z,60.36
2018-05-26T10:01:49.467Z,57.55
2018-05-26T10:02:57.546Z,57.65
2018-05-26T10:04:05.623Z,57.55
2018-05-26T10:05:13.700Z,58.62
2018-05-26T10:06:21.793Z,55.71
2018-05-26T10:07:29.830Z,51.06
2018-05-26T10:08:37.945Z,55.81
2018-05-26T10:09:46.027Z,58.62
2018-05-26T10:10:54.067Z,57.26
2018-05-26T10:12:02.167Z,55.90
2018-05-26T10:13:10.240Z,56.68
2018-05-26T10:14:18.295Z,57.39
2018-05-26T10:15:26.396Z,58.26
2018-05-26T10:16:34.459Z,55.06
2018-05-26T10:17:42.528Z,58.94
2018-05-26T10:18:50.609Z,57.00
2018-05-26T10:19:58.693Z,54.99
2018-05-26T10:21:06.740Z,53.92
2018-05-26T10:22:14.854Z,56.05
2018-05-26T10:23:22.919Z,56.25
2018-05-26T10:24:30.987Z,57.32
2018-05-26T10:25:39.057Z,54.90
2018-05-26T10:26:47.124Z,56.25
2018-05-26T10:27:55.214Z,57.51
2018-05-26T10:29:03.276Z,58.61
2018-05-26T10:30:11.358Z,52.98
2018-05-26T10:31:19.413Z,53.85
2018-05-26T10:32:27.498Z,47.55
2018-05-26T10:33:35.581Z,53.89
2018-05-26T10:34:43.641Z,48.76
2018-05-26T10:35:51.723Z,49.44
2018-05-26T10:36:59.776Z,48.18
2018-05-26T10:38:07.958Z,50.60
2018-05-26T10:39:15.949Z,52.34
2018-05-26T10:40:24.033Z,53.80
2018-05-26T10:41:32.086Z,58.45
2018-05-26T10:42:40.163Z,55.47
2018-05-26T10:43:48.245Z,52.18
2018-05-26T10:44:56.331Z,50.34
2018-05-26T10:46:04.385Z,51.50
2018-05-26T10:47:12.508Z,52.08
2018-05-26T10:48:20.535Z,48.22
2018-05-26T10:49:28.620Z,48.13
2018-05-26T10:50:36.695Z,47.62
2018-05-26T10:51:44.764Z,47.45
2018-05-26T10:52:52.834Z,51.09
2018-05-26T10:54:00.909Z,50.41
2018-05-26T10:55:08.987Z,53.22
2018-05-26T10:56:17.065Z,47.23
2018-05-26T10:57:25.137Z,51.47
2018-05-26T10:58:33.215Z,49.15
2018-05-26T10:59:41.297Z,47.79
2018-05-26T11:00:49.368Z,52.15
2018-05-26T11:01:57.449Z,46.65
2018-05-26T11:03:05.507Z,50.72
2018-05-26T11:04:13.643Z,46.75
2018-05-26T11:05:21.670Z,48.20
2018-05-26T11:06:29.724Z,47.52
2018-05-26T11:07:37.813Z,49.56
2018-05-26T11:08:45.903Z,51.69
2018-05-26T11:09:53.955Z,48.20
2018-05-26T11:11:02.033Z,51.89
2018-05-26T11:12:10.096Z,53.75
2018-05-26T11:13:18.203Z,57.15
2018-05-26T11:14:26.260Z,50.46
2018-05-26T11:15:34.346Z,51.33
2018-05-26T11:16:42.421Z,51.53
2018-05-26T11:17:50.656Z,53.69
2018-05-26T11:18:58.618Z,50.74
2018-05-26T11:20:06.647Z,51.35
2018-05-26T11:21:14.715Z,46.31
2018-05-26T11:22:22.808Z,47.64
2018-05-26T11:23:30.862Z,49.87
2018-05-26T11:24:39.044Z,48.03
2018-05-26T11:25:47.004Z,46.86
2018-05-26T11:26:55.073Z,51.23
2018-05-26T11:28:03.302Z,48.93
2018-05-26T11:29:11.222Z,47.86
2018-05-26T11:30:19.290Z,46.11
2018-05-26T11:31:27.393Z,44.75
2018-05-26T11:32:35.444Z,44.24
2018-05-26T11:33:43.537Z,46.67
2018-05-26T11:34:51.600Z,48.13
2018-05-26T11:35:59.683Z,47.16
2018-05-26T11:37:07.754Z,46.48
2018-05-26T11:38:15.838Z,48.71
2018-05-26T11:39:23.899Z,47.18
2018-05-26T11:40:31.974Z,47.93
2018-05-26T11:41:40.074Z,48.35
2018-05-26T11:42:48.119Z,54.56
2018-05-26T11:43:56.199Z,50.48
2018-05-26T11:45:04.273Z,49.12
2018-05-26T11:46:12.359Z,43.68
2018-05-26T11:47:20.429Z,45.12
2018-05-26T11:48:28.533Z,45.12
2018-05-26T11:49:36.583Z,42.50
2018-05-26T11:50:44.653Z,44.54
2018-05-26T11:51:52.734Z,45.89
2018-05-26T11:53:00.802Z,42.40
2018-05-26T11:54:08.880Z,45.21
2018-05-26T11:55:16.955Z,44.92
2018-05-26T11:56:25.025Z,45.61
2018-05-26T11:57:33.105Z,45.51
2018-05-26T11:58:41.161Z,44.05
2018-05-26T11:59:49.232Z,46.28
2018-05-26T12:00:57.314Z,49.10
2018-05-26T12:02:05.439Z,45.41
2018-05-26T12:03:13.484Z,48.22
2018-05-26T12:04:21.549Z,50.65
2018-05-26T12:05:29.595Z,45.41
2018-05-26T12:06:37.696Z,42.40
2018-05-26T12:07:45.753Z,40.08
2018-05-26T12:08:53.840Z,41.82
2018-05-26T12:10:01.919Z,42.40
2018-05-26T12:11:09.991Z,40.56
2018-05-26T12:12:18.065Z,43.49
2018-05-26T12:13:26.140Z,42.21
2018-05-26T12:14:34.221Z,43.27
2018-05-26T12:15:42.295Z,43.59
2018-05-26T12:16:50.352Z,42.81
2018-05-26T12:17:58.452Z,42.61
2018-05-26T12:19:06.500Z,47.47
2018-05-26T12:20:14.575Z,46.62
2018-05-26T12:21:22.673Z,50.80
2018-05-26T12:22:30.726Z,46.33
2018-05-26T12:23:38.810Z,49.92
2018-05-26T12:24:46.901Z,47.78
2018-05-26T12:25:54.963Z,49.05
2018-05-26T12:27:03.033Z,46.15
2018-05-26T12:28:11.109Z,45.28
2018-05-26T12:29:19.175Z,47.23
2018-05-26T12:30:27.253Z,47.81
2018-05-26T12:31:35.332Z,45.38
2018-05-26T12:32:43.413Z,47.71
2018-05-26T12:33:51.484Z,42.56
2018-05-26T12:34:59.524Z,41.22
2018-05-26T12:36:07.638Z,39.75
2018-05-26T12:37:15.721Z,40.72
2018-05-26T12:38:23.787Z,42.08
2018-05-26T12:39:31.857Z,44.29
2018-05-26T12:40:39.900Z,41.18
2018-05-26T12:41:47.990Z,44.29
2018-05-26T12:42:56.091Z,41.57
2018-05-26T12:44:04.142Z,41.47
2018-05-26T12:45:12.277Z,41.77
2018-05-26T12:46:20.303Z,43.61
2018-05-26T12:47:28.382Z,41.67
2018-05-26T12:48:36.441Z,39.34
2018-05-26T12:49:44.518Z,39.24
2018-05-26T12:50:52.623Z,41.47
2018-05-26T12:52:00.687Z,42.83
2018-05-26T12:53:09.211Z,44.19
2018-05-26T12:54:16.887Z,44.87
2018-05-26T12:55:24.889Z,45.45
2018-05-26T12:56:32.973Z,47.23
2018-05-26T12:57:41.062Z,48.78
2018-05-26T12:58:49.130Z,43.54
2018-05-26T12:59:57.202Z,41.49
2018-05-26T13:01:05.291Z,41.98
2018-05-26T13:02:13.355Z,44.21
2018-05-26T13:03:21.444Z,47.42
2018-05-26T13:04:29.471Z,45.48
2018-05-26T13:05:37.579Z,37.70
2018-05-26T13:06:45.647Z,40.91
2018-05-26T13:07:53.722Z,42.64
2018-05-26T13:09:01.814Z,43.40
2018-05-26T13:10:09.859Z,43.49
2018-05-26T13:11:17.943Z,44.75
2018-05-26T13:12:26.032Z,49.87
2018-05-26T13:13:34.104Z,48.42
2018-05-26T13:14:42.171Z,49.10
2018-05-26T13:15:50.247Z,46.48
2018-05-26T13:16:58.422Z,48.78
2018-05-26T13:18:06.404Z,50.43
2018-05-26T13:19:14.472Z,50.62
2018-05-26T13:20:22.556Z,50.41
2018-05-26T13:21:30.631Z,50.60
2018-05-26T13:22:38.689Z,45.47
2018-05-26T13:23:46.770Z,46.43
2018-05-26T13:24:54.853Z,46.14
2018-05-26T13:26:02.914Z,50.50
2018-05-26T13:27:10.999Z,53.02
2018-05-26T13:28:19.069Z,52.73
2018-05-26T13:29:27.158Z,51.09
2018-05-26T13:30:35.215Z,50.60
2018-05-26T13:31:43.297Z,50.21
2018-05-26T13:32:51.422Z,46.82
2018-05-26T13:33:59.432Z,44.68
2018-05-26T13:35:07.520Z,48.95
2018-05-26T13:36:15.599Z,49.82
2018-05-26T13:37:23.660Z,52.15
2018-05-26T13:38:31.725Z,51.67
2018-05-26T13:39:39.797Z,55.06
2018-05-26T13:40:47.874Z,55.52
2018-05-26T13:41:55.951Z,58.33
2018-05-26T13:43:04.023Z,59.69
2018-05-26T13:44:12.119Z,59.69
2018-05-26T13:45:20.172Z,59.84
2018-05-26T13:46:28.244Z,60.72
2018-05-26T13:47:36.333Z,58.78
2018-05-26T13:48:44.408Z,58.49
2018-05-26T13:49:52.484Z,58.69
2018-05-26T13:51:00.641Z,58.69
2018-05-26T13:52:08.649Z,61.98
2018-05-26T13:53:16.773Z,63.40
2018-05-26T13:54:24.796Z,63.21
2018-05-26T13:55:32.910Z,63.98
2018-05-26T13:56:40.930Z,62.72
2018-05-26T13:57:49.013Z,61.85
2018-05-26T13:58:57.066Z,63.18
2018-05-26T14:00:05.140Z,62.50
2018-05-26T14:01:13.217Z,63.95
2018-05-26T14:02:21.296Z,63.08
2018-05-26T14:03:29.346Z,62.40
2018-05-26T14:04:37.441Z,64.14
2018-05-26T14:05:45.513Z,63.43
2018-05-26T14:06:53.580Z,63.05
2018-05-26T14:08:01.672Z,63.53
2018-05-26T14:09:09.723Z,64.31
2018-05-26T14:10:17.813Z,65.27
2018-05-26T14:11:25.889Z,67.01
2018-05-26T14:12:33.963Z,66.14
2018-05-26T14:13:42.033Z,66.53
2018-05-26T14:14:50.099Z,65.66
2018-05-26T14:15:58.167Z,64.11
2018-05-26T14:17:06.259Z,65.08
2018-05-26T14:18:14.334Z,65.75
2018-05-26T14:19:22.398Z,65.75
2018-05-26T14:20:30.480Z,66.14
2018-05-26T14:21:38.550Z,66.33
2018-05-26T14:22:46.624Z,65.27
2018-05-26T14:23:54.710Z,65.50
2018-05-26T14:25:02.779Z,63.76
2018-05-26T14:26:10.831Z,62.59
2018-05-26T14:27:18.911Z,62.50
2018-05-26T14:28:26.998Z,61.72
2018-05-26T14:29:35.054Z,61.92
2018-05-26T14:30:43.161Z,62.11
2018-05-26T14:31:51.225Z,62.88
2018-05-26T14:32:59.285Z,64.14
2018-05-26T14:34:07.348Z,64.27
2018-05-26T14:35:15.435Z,65.72
2018-05-26T14:36:23.532Z,62.53